Terminal Aerodrome Forecast
Issued by NWS Boston, MA

Home | Current Version | Previous Version | Text Only | Print | Product List | Glossary On
Versions: 1 2 3 4 5 6 7 8 9 10 11 12 13 14 15 16 17 18 19 20
000
FTUS41 KBOX 312320
TAFBDL
TAF
KBDL 312320Z 0100/0206 20007KT P6SM -SHRA SCT035 BKN100
     FM010600 00000KT 3SM BR VCSH OVC050
     FM011200 00000KT P6SM OVC035
     FM011900 34004KT P6SM BKN040
     FM020200 34004KT P6SM SCT200=

USA.gov is the U.S. government's official web portal to all federal, state and local government web resources and services.